sensor_id;sensor_type;location;lat;lon;timestamp;P1;durP1;ratioP1;P2;durP2;ratioP2
34765;SDS011;20984;43.508;1.504;2023-07-09T00:00:46;9.05;;;4.68;;
34765;SDS011;20984;43.508;1.504;2023-07-09T00:03:13;9.00;;;4.55;;
34765;SDS011;20984;43.508;1.504;2023-07-09T00:05:39;6.93;;;4.63;;
34765;SDS011;20984;43.508;1.504;2023-07-09T00:08:05;10.20;;;4.38;;
34765;SDS011;20984;43.508;1.504;2023-07-09T00:10:34;6.60;;;4.82;;
34765;SDS011;20984;43.508;1.504;2023-07-09T00:13:00;10.07;;;4.95;;
34765;SDS011;20984;43.508;1.504;2023-07-09T00:15:26;8.68;;;4.25;;
34765;SDS011;20984;43.508;1.504;2023-07-09T00:17:52;10.20;;;4.32;;
34765;SDS011;20984;43.508;1.504;2023-07-09T00:20:18;9.60;;;4.70;;
34765;SDS011;20984;43.508;1.504;2023-07-09T00:22:43;11.95;;;4.88;;
34765;SDS011;20984;43.508;1.504;2023-07-09T00:25:18;7.05;;;4.15;;
34765;SDS011;20984;43.508;1.504;2023-07-09T00:27:45;10.82;;;3.85;;
34765;SDS011;20984;43.508;1.504;2023-07-09T00:30:17;9.13;;;4.07;;
34765;SDS011;20984;43.508;1.504;2023-07-09T00:32:46;6.35;;;3.90;;
34765;SDS011;20984;43.508;1.504;2023-07-09T00:35:17;7.95;;;4.90;;
34765;SDS011;20984;43.508;1.504;2023-07-09T00:37:43;9.07;;;4.90;;
34765;SDS011;20984;43.508;1.504;2023-07-09T00:40:14;9.68;;;4.68;;
34765;SDS011;20984;43.508;1.504;2023-07-09T00:42:42;12.02;;;5.38;;
34765;SDS011;20984;43.508;1.504;2023-07-09T00:45:20;9.93;;;4.50;;
34765;SDS011;20984;43.508;1.504;2023-07-09T00:52:57;6.05;;;4.05;;
34765;SDS011;20984;43.508;1.504;2023-07-09T00:55:32;8.32;;;4.13;;
34765;SDS011;20984;43.508;1.504;2023-07-09T00:58:03;7.32;;;4.53;;
34765;SDS011;20984;43.508;1.504;2023-07-09T01:00:34;7.65;;;4.55;;
34765;SDS011;20984;43.508;1.504;2023-07-09T01:03:11;7.40;;;4.72;;
34765;SDS011;20984;43.508;1.504;2023-07-09T01:05:43;9.52;;;4.32;;
34765;SDS011;20984;43.508;1.504;2023-07-09T01:08:10;10.27;;;5.07;;
34765;SDS011;20984;43.508;1.504;2023-07-09T01:10:37;8.15;;;4.40;;
34765;SDS011;20984;43.508;1.504;2023-07-09T01:13:05;8.43;;;4.70;;
34765;SDS011;20984;43.508;1.504;2023-07-09T01:15:33;5.90;;;4.40;;
34765;SDS011;20984;43.508;1.504;2023-07-09T01:18:02;9.65;;;4.72;;
34765;SDS011;20984;43.508;1.504;2023-07-09T01:20:29;10.82;;;4.80;;
34765;SDS011;20984;43.508;1.504;2023-07-09T01:22:56;10.07;;;5.13;;
34765;SDS011;20984;43.508;1.504;2023-07-09T01:25:22;10.38;;;4.30;;
34765;SDS011;20984;43.508;1.504;2023-07-09T01:27:51;7.90;;;4.60;;
34765;SDS011;20984;43.508;1.504;2023-07-09T01:30:22;13.02;;;4.28;;
34765;SDS011;20984;43.508;1.504;2023-07-09T01:32:51;7.45;;;4.25;;
34765;SDS011;20984;43.508;1.504;2023-07-09T01:35:21;6.50;;;4.40;;
34765;SDS011;20984;43.508;1.504;2023-07-09T01:37:48;10.50;;;4.53;;
34765;SDS011;20984;43.508;1.504;2023-07-09T01:40:15;9.55;;;4.85;;
34765;SDS011;20984;43.508;1.504;2023-07-09T01:42:42;9.52;;;4.95;;
34765;SDS011;20984;43.508;1.504;2023-07-09T01:45:09;9.93;;;5.25;;
34765;SDS011;20984;43.508;1.504;2023-07-09T01:47:37;7.22;;;4.25;;
34765;SDS011;20984;43.508;1.504;2023-07-09T01:50:05;7.03;;;4.50;;
34765;SDS011;20984;43.508;1.504;2023-07-09T01:52:32;10.75;;;4.25;;
34765;SDS011;20984;43.508;1.504;2023-07-09T01:54:58;9.55;;;4.93;;
34765;SDS011;20984;43.508;1.504;2023-07-09T01:57:25;8.20;;;4.40;;
34765;SDS011;20984;43.508;1.504;2023-07-09T01:59:58;6.45;;;4.38;;
34765;SDS011;20984;43.508;1.504;2023-07-09T02:02:26;8.60;;;4.75;;
34765;SDS011;20984;43.508;1.504;2023-07-09T02:04:53;7.05;;;3.90;;
34765;SDS011;20984;43.508;1.504;2023-07-09T02:07:20;9.40;;;5.70;;
34765;SDS011;20984;43.508;1.504;2023-07-09T02:09:48;12.13;;;5.68;;
34765;SDS011;20984;43.508;1.504;2023-07-09T02:12:14;10.13;;;4.88;;
34765;SDS011;20984;43.508;1.504;2023-07-09T02:14:41;6.50;;;4.65;;
34765;SDS011;20984;43.508;1.504;2023-07-09T02:17:09;10.43;;;5.20;;
34765;SDS011;20984;43.508;1.504;2023-07-09T02:19:36;9.80;;;5.55;;
34765;SDS011;20984;43.508;1.504;2023-07-09T02:22:02;10.98;;;5.65;;
34765;SDS011;20984;43.508;1.504;2023-07-09T02:24:29;9.05;;;4.90;;
34765;SDS011;20984;43.508;1.504;2023-07-09T02:26:55;8.43;;;5.47;;
34765;SDS011;20984;43.508;1.504;2023-07-09T02:29:25;9.07;;;5.63;;
34765;SDS011;20984;43.508;1.504;2023-07-09T02:31:52;9.73;;;5.45;;
34765;SDS011;20984;43.508;1.504;2023-07-09T02:34:19;8.23;;;5.15;;
34765;SDS011;20984;43.508;1.504;2023-07-09T02:36:46;10.52;;;5.45;;
34765;SDS011;20984;43.508;1.504;2023-07-09T02:39:12;14.15;;;5.20;;
34765;SDS011;20984;43.508;1.504;2023-07-09T02:41:39;11.45;;;5.00;;
34765;SDS011;20984;43.508;1.504;2023-07-09T02:44:05;9.77;;;5.40;;
34765;SDS011;20984;43.508;1.504;2023-07-09T02:46:32;12.25;;;5.22;;
34765;SDS011;20984;43.508;1.504;2023-07-09T02:48:57;8.88;;;5.15;;
34765;SDS011;20984;43.508;1.504;2023-07-09T02:51:24;8.93;;;5.03;;
34765;SDS011;20984;43.508;1.504;2023-07-09T02:53:51;8.98;;;5.50;;
34765;SDS011;20984;43.508;1.504;2023-07-09T02:56:21;9.00;;;4.78;;
34765;SDS011;20984;43.508;1.504;2023-07-09T02:58:47;10.43;;;5.25;;
34765;SDS011;20984;43.508;1.504;2023-07-09T03:01:13;12.75;;;5.40;;
34765;SDS011;20984;43.508;1.504;2023-07-09T03:03:39;14.75;;;5.13;;
34765;SDS011;20984;43.508;1.504;2023-07-09T03:06:05;10.05;;;4.40;;
34765;SDS011;20984;43.508;1.504;2023-07-09T03:08:31;9.70;;;4.80;;
34765;SDS011;20984;43.508;1.504;2023-07-09T03:10:57;11.88;;;5.20;;
34765;SDS011;20984;43.508;1.504;2023-07-09T03:13:23;10.88;;;4.80;;
34765;SDS011;20984;43.508;1.504;2023-07-09T03:15:55;10.52;;;5.43;;
34765;SDS011;20984;43.508;1.504;2023-07-09T03:18:21;6.50;;;4.75;;
34765;SDS011;20984;43.508;1.504;2023-07-09T03:20:47;8.68;;;4.78;;
34765;SDS011;20984;43.508;1.504;2023-07-09T03:23:13;9.82;;;5.00;;
34765;SDS011;20984;43.508;1.504;2023-07-09T03:25:41;6.85;;;4.35;;
34765;SDS011;20984;43.508;1.504;2023-07-09T03:28:08;12.63;;;5.35;;
34765;SDS011;20984;43.508;1.504;2023-07-09T03:30:34;10.68;;;4.70;;
34765;SDS011;20984;43.508;1.504;2023-07-09T03:32:59;10.70;;;4.95;;
34765;SDS011;20984;43.508;1.504;2023-07-09T03:35:25;7.75;;;4.38;;
34765;SDS011;20984;43.508;1.504;2023-07-09T03:37:51;6.30;;;4.43;;
34765;SDS011;20984;43.508;1.504;2023-07-09T03:40:23;11.23;;;5.05;;
34765;SDS011;20984;43.508;1.504;2023-07-09T03:42:49;10.98;;;5.22;;
34765;SDS011;20984;43.508;1.504;2023-07-09T03:45:15;10.68;;;4.65;;
34765;SDS011;20984;43.508;1.504;2023-07-09T03:47:41;9.25;;;5.28;;
34765;SDS011;20984;43.508;1.504;2023-07-09T03:50:08;11.38;;;5.20;;
34765;SDS011;20984;43.508;1.504;2023-07-09T03:52:34;6.93;;;4.55;;
34765;SDS011;20984;43.508;1.504;2023-07-09T03:55:01;7.40;;;4.72;;
34765;SDS011;20984;43.508;1.504;2023-07-09T03:57:29;9.68;;;4.57;;
34765;SDS011;20984;43.508;1.504;2023-07-09T03:59:55;10.65;;;5.03;;
34765;SDS011;20984;43.508;1.504;2023-07-09T04:02:21;11.85;;;5.13;;
34765;SDS011;20984;43.508;1.504;2023-07-09T04:04:47;11.30;;;4.82;;
34765;SDS011;20984;43.508;1.504;2023-07-09T04:07:12;7.53;;;4.97;;
34765;SDS011;20984;43.508;1.504;2023-07-09T04:09:38;9.45;;;4.80;;
34765;SDS011;20984;43.508;1.504;2023-07-09T04:12:04;9.63;;;5.18;;
34765;SDS011;20984;43.508;1.504;2023-07-09T04:14:30;7.78;;;4.53;;
34765;SDS011;20984;43.508;1.504;2023-07-09T04:16:56;9.45;;;4.45;;
34765;SDS011;20984;43.508;1.504;2023-07-09T04:19:22;6.00;;;4.40;;
34765;SDS011;20984;43.508;1.504;2023-07-09T04:21:48;6.40;;;4.50;;
34765;SDS011;20984;43.508;1.504;2023-07-09T04:24:16;6.40;;;4.43;;
34765;SDS011;20984;43.508;1.504;2023-07-09T04:26:42;7.78;;;4.78;;
34765;SDS011;20984;43.508;1.504;2023-07-09T04:29:09;8.35;;;4.57;;
34765;SDS011;20984;43.508;1.504;2023-07-09T04:31:35;8.43;;;4.43;;
34765;SDS011;20984;43.508;1.504;2023-07-09T04:34:00;7.80;;;4.50;;
34765;SDS011;20984;43.508;1.504;2023-07-09T04:36:26;7.47;;;4.28;;
34765;SDS011;20984;43.508;1.504;2023-07-09T04:38:52;9.13;;;4.07;;
34765;SDS011;20984;43.508;1.504;2023-07-09T04:41:18;10.23;;;4.35;;
34765;SDS011;20984;43.508;1.504;2023-07-09T04:43:43;7.18;;;4.40;;
34765;SDS011;20984;43.508;1.504;2023-07-09T04:46:09;7.15;;;4.88;;
34765;SDS011;20984;43.508;1.504;2023-07-09T04:48:35;9.40;;;4.97;;
34765;SDS011;20984;43.508;1.504;2023-07-09T04:51:01;10.00;;;4.57;;
34765;SDS011;20984;43.508;1.504;2023-07-09T04:53:26;11.05;;;4.45;;
34765;SDS011;20984;43.508;1.504;2023-07-09T04:55:52;7.47;;;4.07;;
34765;SDS011;20984;43.508;1.504;2023-07-09T04:58:18;9.23;;;4.32;;
34765;SDS011;20984;43.508;1.504;2023-07-09T05:00:44;7.88;;;3.78;;
34765;SDS011;20984;43.508;1.504;2023-07-09T05:03:10;6.70;;;3.78;;
34765;SDS011;20984;43.508;1.504;2023-07-09T05:05:43;11.30;;;4.40;;
34765;SDS011;20984;43.508;1.504;2023-07-09T05:08:09;6.70;;;3.80;;
34765;SDS011;20984;43.508;1.504;2023-07-09T05:10:42;7.93;;;3.63;;
34765;SDS011;20984;43.508;1.504;2023-07-09T05:13:12;6.53;;;3.50;;
34765;SDS011;20984;43.508;1.504;2023-07-09T05:15:42;6.72;;;3.60;;
34765;SDS011;20984;43.508;1.504;2023-07-09T05:18:10;8.85;;;4.32;;
34765;SDS011;20984;43.508;1.504;2023-07-09T05:20:36;7.35;;;3.90;;
34765;SDS011;20984;43.508;1.504;2023-07-09T05:23:02;7.07;;;4.20;;
34765;SDS011;20984;43.508;1.504;2023-07-09T05:25:28;12.40;;;4.38;;
34765;SDS011;20984;43.508;1.504;2023-07-09T05:27:53;6.78;;;4.20;;
34765;SDS011;20984;43.508;1.504;2023-07-09T05:30:19;9.00;;;4.50;;
34765;SDS011;20984;43.508;1.504;2023-07-09T05:32:46;14.00;;;4.70;;
34765;SDS011;20984;43.508;1.504;2023-07-09T05:35:13;6.32;;;4.25;;
34765;SDS011;20984;43.508;1.504;2023-07-09T05:37:39;8.80;;;4.72;;
34765;SDS011;20984;43.508;1.504;2023-07-09T05:40:06;10.48;;;4.50;;
34765;SDS011;20984;43.508;1.504;2023-07-09T05:42:33;6.78;;;4.35;;
34765;SDS011;20984;43.508;1.504;2023-07-09T05:44:59;12.93;;;5.35;;
34765;SDS011;20984;43.508;1.504;2023-07-09T05:47:25;5.85;;;3.97;;
34765;SDS011;20984;43.508;1.504;2023-07-09T05:49:51;11.93;;;4.90;;
34765;SDS011;20984;43.508;1.504;2023-07-09T05:52:18;9.80;;;4.90;;
34765;SDS011;20984;43.508;1.504;2023-07-09T05:54:45;10.05;;;4.97;;
34765;SDS011;20984;43.508;1.504;2023-07-09T05:57:14;6.10;;;4.72;;
34765;SDS011;20984;43.508;1.504;2023-07-09T05:59:40;10.52;;;4.18;;
34765;SDS011;20984;43.508;1.504;2023-07-09T06:02:08;6.10;;;4.07;;
34765;SDS011;20984;43.508;1.504;2023-07-09T06:04:39;8.40;;;4.45;;
34765;SDS011;20984;43.508;1.504;2023-07-09T06:07:05;12.35;;;5.07;;
34765;SDS011;20984;43.508;1.504;2023-07-09T06:09:31;7.03;;;4.07;;
34765;SDS011;20984;43.508;1.504;2023-07-09T06:11:57;9.43;;;4.97;;
34765;SDS011;20984;43.508;1.504;2023-07-09T06:14:23;9.23;;;4.00;;
34765;SDS011;20984;43.508;1.504;2023-07-09T06:16:49;7.50;;;4.57;;
34765;SDS011;20984;43.508;1.504;2023-07-09T06:19:15;10.43;;;4.60;;
34765;SDS011;20984;43.508;1.504;2023-07-09T06:21:41;8.18;;;4.35;;
34765;SDS011;20984;43.508;1.504;2023-07-09T06:24:07;6.88;;;3.75;;
34765;SDS011;20984;43.508;1.504;2023-07-09T06:26:33;6.80;;;3.72;;
34765;SDS011;20984;43.508;1.504;2023-07-09T06:28:59;12.82;;;3.97;;
34765;SDS011;20984;43.508;1.504;2023-07-09T06:31:25;9.18;;;4.78;;
34765;SDS011;20984;43.508;1.504;2023-07-09T06:33:51;9.57;;;4.13;;
34765;SDS011;20984;43.508;1.504;2023-07-09T06:36:17;10.82;;;5.28;;
34765;SDS011;20984;43.508;1.504;2023-07-09T06:38:44;7.97;;;4.00;;
34765;SDS011;20984;43.508;1.504;2023-07-09T06:41:10;7.38;;;4.00;;
34765;SDS011;20984;43.508;1.504;2023-07-09T06:43:37;10.25;;;4.55;;
34765;SDS011;20984;43.508;1.504;2023-07-09T06:46:06;11.27;;;4.15;;
34765;SDS011;20984;43.508;1.504;2023-07-09T06:48:34;7.28;;;4.13;;
34765;SDS011;20984;43.508;1.504;2023-07-09T06:51:00;13.80;;;5.25;;
34765;SDS011;20984;43.508;1.504;2023-07-09T06:53:26;9.50;;;5.30;;
34765;SDS011;20984;43.508;1.504;2023-07-09T06:55:53;10.70;;;5.40;;
34765;SDS011;20984;43.508;1.504;2023-07-09T06:58:25;14.27;;;5.72;;
34765;SDS011;20984;43.508;1.504;2023-07-09T07:00:53;10.13;;;5.40;;
34765;SDS011;20984;43.508;1.504;2023-07-09T07:03:19;9.70;;;5.80;;
34765;SDS011;20984;43.508;1.504;2023-07-09T07:05:46;11.15;;;6.00;;
34765;SDS011;20984;43.508;1.504;2023-07-09T07:08:18;9.55;;;5.78;;
34765;SDS011;20984;43.508;1.504;2023-07-09T07:10:47;7.22;;;4.97;;
34765;SDS011;20984;43.508;1.504;2023-07-09T07:13:13;10.55;;;6.15;;
34765;SDS011;20984;43.508;1.504;2023-07-09T07:15:39;10.07;;;5.88;;
34765;SDS011;20984;43.508;1.504;2023-07-09T07:18:05;9.63;;;4.90;;
34765;SDS011;20984;43.508;1.504;2023-07-09T07:20:32;8.25;;;4.32;;
34765;SDS011;20984;43.508;1.504;2023-07-09T07:22:58;8.57;;;4.47;;
34765;SDS011;20984;43.508;1.504;2023-07-09T07:25:24;6.35;;;3.80;;
34765;SDS011;20984;43.508;1.504;2023-07-09T07:27:50;8.20;;;3.45;;
34765;SDS011;20984;43.508;1.504;2023-07-09T07:30:16;9.40;;;3.95;;
34765;SDS011;20984;43.508;1.504;2023-07-09T07:32:44;6.82;;;3.50;;
34765;SDS011;20984;43.508;1.504;2023-07-09T07:35:11;8.85;;;3.83;;
34765;SDS011;20984;43.508;1.504;2023-07-09T07:37:38;8.60;;;3.80;;
34765;SDS011;20984;43.508;1.504;2023-07-09T07:40:05;9.32;;;4.22;;
34765;SDS011;20984;43.508;1.504;2023-07-09T07:42:31;9.18;;;4.40;;
34765;SDS011;20984;43.508;1.504;2023-07-09T07:44:57;7.75;;;4.00;;
34765;SDS011;20984;43.508;1.504;2023-07-09T07:47:23;6.88;;;3.72;;
34765;SDS011;20984;43.508;1.504;2023-07-09T07:49:49;6.03;;;3.75;;
34765;SDS011;20984;43.508;1.504;2023-07-09T07:52:14;6.40;;;3.75;;
34765;SDS011;20984;43.508;1.504;2023-07-09T07:54:40;7.30;;;4.00;;
34765;SDS011;20984;43.508;1.504;2023-07-09T07:57:06;8.80;;;4.60;;
34765;SDS011;20984;43.508;1.504;2023-07-09T07:59:34;6.13;;;4.05;;
34765;SDS011;20984;43.508;1.504;2023-07-09T08:02:01;7.90;;;3.65;;
34765;SDS011;20984;43.508;1.504;2023-07-09T08:04:27;6.63;;;3.80;;
34765;SDS011;20984;43.508;1.504;2023-07-09T08:06:53;9.45;;;3.85;;
34765;SDS011;20984;43.508;1.504;2023-07-09T08:09:19;9.82;;;3.95;;
34765;SDS011;20984;43.508;1.504;2023-07-09T08:11:44;8.30;;;3.70;;
34765;SDS011;20984;43.508;1.504;2023-07-09T08:14:10;15.55;;;4.25;;
34765;SDS011;20984;43.508;1.504;2023-07-09T08:16:36;9.82;;;4.07;;
34765;SDS011;20984;43.508;1.504;2023-07-09T08:19:02;12.43;;;8.65;;
34765;SDS011;20984;43.508;1.504;2023-07-09T08:21:28;16.83;;;11.57;;
34765;SDS011;20984;43.508;1.504;2023-07-09T08:23:53;17.33;;;11.45;;
34765;SDS011;20984;43.508;1.504;2023-07-09T08:26:19;22.13;;;12.63;;
34765;SDS011;20984;43.508;1.504;2023-07-09T08:28:45;24.95;;;12.52;;
34765;SDS011;20984;43.508;1.504;2023-07-09T08:31:10;17.50;;;11.73;;
34765;SDS011;20984;43.508;1.504;2023-07-09T08:33:36;18.27;;;12.57;;
34765;SDS011;20984;43.508;1.504;2023-07-09T08:36:02;16.27;;;12.45;;
34765;SDS011;20984;43.508;1.504;2023-07-09T08:38:28;16.15;;;12.77;;
34765;SDS011;20984;43.508;1.504;2023-07-09T08:41:01;16.33;;;11.85;;
34765;SDS011;20984;43.508;1.504;2023-07-09T08:43:39;18.65;;;11.93;;
34765;SDS011;20984;43.508;1.504;2023-07-09T08:49:02;14.68;;;11.15;;
34765;SDS011;20984;43.508;1.504;2023-07-09T08:51:38;17.85;;;11.43;;
34765;SDS011;20984;43.508;1.504;2023-07-09T08:54:14;20.27;;;11.25;;
34765;SDS011;20984;43.508;1.504;2023-07-09T08:56:58;16.02;;;12.23;;
34765;SDS011;20984;43.508;1.504;2023-07-09T08:59:28;18.00;;;11.65;;
34765;SDS011;20984;43.508;1.504;2023-07-09T09:01:54;14.80;;;11.02;;
34765;SDS011;20984;43.508;1.504;2023-07-09T09:06:59;15.57;;;10.27;;
34765;SDS011;20984;43.508;1.504;2023-07-09T09:09:56;16.50;;;11.27;;
34765;SDS011;20984;43.508;1.504;2023-07-09T09:17:25;14.43;;;10.50;;
34765;SDS011;20984;43.508;1.504;2023-07-09T09:19:55;13.73;;;11.17;;
34765;SDS011;20984;43.508;1.504;2023-07-09T09:22:25;14.23;;;11.02;;
34765;SDS011;20984;43.508;1.504;2023-07-09T09:27:30;14.80;;;11.10;;
34765;SDS011;20984;43.508;1.504;2023-07-09T09:29:55;14.23;;;10.18;;
34765;SDS011;20984;43.508;1.504;2023-07-09T09:32:28;13.13;;;10.70;;
34765;SDS011;20984;43.508;1.504;2023-07-09T09:34:59;14.57;;;10.32;;
34765;SDS011;20984;43.508;1.504;2023-07-09T09:37:37;13.60;;;10.43;;
34765;SDS011;20984;43.508;1.504;2023-07-09T09:40:03;14.30;;;11.40;;
34765;SDS011;20984;43.508;1.504;2023-07-09T09:42:29;16.73;;;12.00;;
34765;SDS011;20984;43.508;1.504;2023-07-09T09:44:55;13.38;;;11.30;;
34765;SDS011;20984;43.508;1.504;2023-07-09T09:47:21;15.70;;;10.50;;
34765;SDS011;20984;43.508;1.504;2023-07-09T09:49:51;14.98;;;10.60;;
34765;SDS011;20984;43.508;1.504;2023-07-09T09:52:18;14.23;;;10.60;;
34765;SDS011;20984;43.508;1.504;2023-07-09T09:54:51;15.43;;;11.40;;
34765;SDS011;20984;43.508;1.504;2023-07-09T09:57:21;13.77;;;10.77;;
34765;SDS011;20984;43.508;1.504;2023-07-09T09:59:49;13.07;;;9.45;;
34765;SDS011;20984;43.508;1.504;2023-07-09T10:02:22;14.18;;;10.88;;
34765;SDS011;20984;43.508;1.504;2023-07-09T10:04:50;13.82;;;11.07;;
34765;SDS011;20984;43.508;1.504;2023-07-09T10:07:39;15.10;;;11.10;;
34765;SDS011;20984;43.508;1.504;2023-07-09T10:10:15;25.92;;;17.55;;
34765;SDS011;20984;43.508;1.504;2023-07-09T10:12:52;12.60;;;10.70;;
34765;SDS011;20984;43.508;1.504;2023-07-09T10:21:07;14.73;;;10.75;;
34765;SDS011;20984;43.508;1.504;2023-07-09T10:23:46;11.75;;;10.02;;
34765;SDS011;20984;43.508;1.504;2023-07-09T10:39:48;17.65;;;11.25;;
34765;SDS011;20984;43.508;1.504;2023-07-09T10:42:24;16.73;;;11.68;;
34765;SDS011;20984;43.508;1.504;2023-07-09T10:45:14;15.13;;;11.43;;
34765;SDS011;20984;43.508;1.504;2023-07-09T10:48:02;13.90;;;10.85;;
34765;SDS011;20984;43.508;1.504;2023-07-09T10:50:40;17.48;;;11.05;;
34765;SDS011;20984;43.508;1.504;2023-07-09T10:53:14;13.65;;;11.13;;
34765;SDS011;20984;43.508;1.504;2023-07-09T10:55:57;14.40;;;11.10;;
34765;SDS011;20984;43.508;1.504;2023-07-09T11:01:10;13.10;;;11.60;;
34765;SDS011;20984;43.508;1.504;2023-07-09T11:03:47;15.80;;;11.13;;
34765;SDS011;20984;43.508;1.504;2023-07-09T11:06:23;15.80;;;11.55;;
34765;SDS011;20984;43.508;1.504;2023-07-09T11:08:57;13.90;;;10.43;;
34765;SDS011;20984;43.508;1.504;2023-07-09T11:13:59;13.98;;;11.32;;
34765;SDS011;20984;43.508;1.504;2023-07-09T11:16:35;13.85;;;10.95;;
34765;SDS011;20984;43.508;1.504;2023-07-09T11:19:04;14.80;;;10.88;;
34765;SDS011;20984;43.508;1.504;2023-07-09T11:21:40;15.50;;;11.80;;
34765;SDS011;20984;43.508;1.504;2023-07-09T11:27:19;14.43;;;11.23;;
34765;SDS011;20984;43.508;1.504;2023-07-09T11:30:01;14.77;;;11.05;;
34765;SDS011;20984;43.508;1.504;2023-07-09T11:32:45;15.23;;;10.43;;
34765;SDS011;20984;43.508;1.504;2023-07-09T11:35:24;13.25;;;10.70;;
34765;SDS011;20984;43.508;1.504;2023-07-09T11:37:54;13.85;;;10.25;;
34765;SDS011;20984;43.508;1.504;2023-07-09T11:40:21;15.32;;;10.10;;
34765;SDS011;20984;43.508;1.504;2023-07-09T11:45:17;13.77;;;10.85;;
34765;SDS011;20984;43.508;1.504;2023-07-09T11:50:35;15.70;;;11.07;;
34765;SDS011;20984;43.508;1.504;2023-07-09T11:53:21;14.32;;;11.48;;
34765;SDS011;20984;43.508;1.504;2023-07-09T11:55:56;13.30;;;10.52;;
34765;SDS011;20984;43.508;1.504;2023-07-09T11:58:22;13.20;;;9.60;;
34765;SDS011;20984;43.508;1.504;2023-07-09T12:00:51;11.85;;;9.90;;
34765;SDS011;20984;43.508;1.504;2023-07-09T12:03:22;15.10;;;10.95;;
34765;SDS011;20984;43.508;1.504;2023-07-09T12:06:04;13.37;;;10.27;;
34765;SDS011;20984;43.508;1.504;2023-07-09T12:08:42;12.23;;;9.90;;
34765;SDS011;20984;43.508;1.504;2023-07-09T12:13:44;12.02;;;10.30;;
34765;SDS011;20984;43.508;1.504;2023-07-09T12:16:20;11.93;;;9.38;;
34765;SDS011;20984;43.508;1.504;2023-07-09T12:18:46;13.82;;;9.48;;
34765;SDS011;20984;43.508;1.504;2023-07-09T12:21:12;13.88;;;10.38;;
34765;SDS011;20984;43.508;1.504;2023-07-09T12:23:39;11.60;;;8.95;;
34765;SDS011;20984;43.508;1.504;2023-07-09T12:26:05;12.88;;;8.80;;
34765;SDS011;20984;43.508;1.504;2023-07-09T12:28:36;13.25;;;10.00;;
34765;SDS011;20984;43.508;1.504;2023-07-09T12:31:02;12.73;;;9.38;;
34765;SDS011;20984;43.508;1.504;2023-07-09T12:33:27;17.25;;;9.95;;
34765;SDS011;20984;43.508;1.504;2023-07-09T12:36:00;13.40;;;8.75;;
34765;SDS011;20984;43.508;1.504;2023-07-09T12:38:30;12.90;;;9.00;;
34765;SDS011;20984;43.508;1.504;2023-07-09T12:41:05;12.70;;;7.90;;
34765;SDS011;20984;43.508;1.504;2023-07-09T12:43:40;9.85;;;8.55;;
34765;SDS011;20984;43.508;1.504;2023-07-09T12:46:06;10.55;;;9.05;;
34765;SDS011;20984;43.508;1.504;2023-07-09T12:48:32;10.98;;;9.13;;
34765;SDS011;20984;43.508;1.504;2023-07-09T12:50:58;17.38;;;8.65;;
34765;SDS011;20984;43.508;1.504;2023-07-09T12:53:26;12.00;;;7.60;;
34765;SDS011;20984;43.508;1.504;2023-07-09T12:55:57;18.00;;;7.93;;
34765;SDS011;20984;43.508;1.504;2023-07-09T12:58:25;12.48;;;8.30;;
34765;SDS011;20984;43.508;1.504;2023-07-09T13:00:55;11.00;;;8.02;;
34765;SDS011;20984;43.508;1.504;2023-07-09T13:03:29;10.93;;;7.78;;
34765;SDS011;20984;43.508;1.504;2023-07-09T13:06:00;11.50;;;8.13;;
34765;SDS011;20984;43.508;1.504;2023-07-09T13:08:29;13.68;;;7.85;;
34765;SDS011;20984;43.508;1.504;2023-07-09T13:10:56;11.80;;;7.22;;
34765;SDS011;20984;43.508;1.504;2023-07-09T13:13:23;11.13;;;7.65;;
34765;SDS011;20984;43.508;1.504;2023-07-09T13:15:51;11.18;;;7.90;;
34765;SDS011;20984;43.508;1.504;2023-07-09T13:18:22;9.85;;;7.18;;
34765;SDS011;20984;43.508;1.504;2023-07-09T13:20:48;10.05;;;7.30;;
34765;SDS011;20984;43.508;1.504;2023-07-09T13:23:15;10.73;;;7.43;;
34765;SDS011;20984;43.508;1.504;2023-07-09T13:25:41;8.20;;;6.72;;
34765;SDS011;20984;43.508;1.504;2023-07-09T13:28:18;13.93;;;7.60;;
34765;SDS011;20984;43.508;1.504;2023-07-09T13:30:51;9.30;;;6.88;;
34765;SDS011;20984;43.508;1.504;2023-07-09T13:33:20;13.38;;;6.90;;
34765;SDS011;20984;43.508;1.504;2023-07-09T13:35:46;9.45;;;6.70;;
34765;SDS011;20984;43.508;1.504;2023-07-09T13:38:16;8.68;;;6.57;;
34765;SDS011;20984;43.508;1.504;2023-07-09T13:40:44;10.38;;;6.60;;
34765;SDS011;20984;43.508;1.504;2023-07-09T13:43:12;9.10;;;6.72;;
34765;SDS011;20984;43.508;1.504;2023-07-09T13:45:44;10.30;;;6.47;;
34765;SDS011;20984;43.508;1.504;2023-07-09T13:48:17;10.07;;;6.85;;
34765;SDS011;20984;43.508;1.504;2023-07-09T13:50:47;11.38;;;6.22;;
34765;SDS011;20984;43.508;1.504;2023-07-09T13:53:15;7.72;;;6.28;;
34765;SDS011;20984;43.508;1.504;2023-07-09T13:55:49;10.88;;;6.25;;
34765;SDS011;20984;43.508;1.504;2023-07-09T13:58:16;10.48;;;6.63;;
34765;SDS011;20984;43.508;1.504;2023-07-09T14:00:44;7.57;;;6.03;;
34765;SDS011;20984;43.508;1.504;2023-07-09T14:03:22;9.80;;;5.95;;
34765;SDS011;20984;43.508;1.504;2023-07-09T14:05:49;7.70;;;5.88;;
34765;SDS011;20984;43.508;1.504;2023-07-09T14:08:15;9.63;;;5.95;;
34765;SDS011;20984;43.508;1.504;2023-07-09T14:10:42;8.43;;;6.32;;
34765;SDS011;20984;43.508;1.504;2023-07-09T14:13:12;9.00;;;6.22;;
34765;SDS011;20984;43.508;1.504;2023-07-09T14:15:42;9.00;;;6.20;;
34765;SDS011;20984;43.508;1.504;2023-07-09T14:18:11;9.52;;;6.18;;
34765;SDS011;20984;43.508;1.504;2023-07-09T14:20:38;10.73;;;5.50;;
34765;SDS011;20984;43.508;1.504;2023-07-09T14:23:04;8.43;;;5.63;;
34765;SDS011;20984;43.508;1.504;2023-07-09T14:25:30;15.35;;;6.57;;
34765;SDS011;20984;43.508;1.504;2023-07-09T14:27:55;9.40;;;5.13;;
34765;SDS011;20984;43.508;1.504;2023-07-09T14:30:22;10.57;;;6.10;;
34765;SDS011;20984;43.508;1.504;2023-07-09T14:32:49;9.00;;;5.32;;
34765;SDS011;20984;43.508;1.504;2023-07-09T14:35:21;8.13;;;5.20;;
34765;SDS011;20984;43.508;1.504;2023-07-09T14:37:48;8.88;;;6.10;;
34765;SDS011;20984;43.508;1.504;2023-07-09T14:40:16;6.75;;;5.13;;
34765;SDS011;20984;43.508;1.504;2023-07-09T14:42:44;7.13;;;5.57;;
34765;SDS011;20984;43.508;1.504;2023-07-09T14:45:21;10.77;;;6.13;;
34765;SDS011;20984;43.508;1.504;2023-07-09T14:47:48;8.15;;;5.22;;
34765;SDS011;20984;43.508;1.504;2023-07-09T14:50:15;11.18;;;5.57;;
34765;SDS011;20984;43.508;1.504;2023-07-09T14:52:41;7.15;;;4.90;;
34765;SDS011;20984;43.508;1.504;2023-07-09T14:55:19;12.80;;;5.72;;
34765;SDS011;20984;43.508;1.504;2023-07-09T14:57:47;8.55;;;5.00;;
34765;SDS011;20984;43.508;1.504;2023-07-09T15:00:14;10.80;;;5.43;;
34765;SDS011;20984;43.508;1.504;2023-07-09T15:02:48;8.50;;;5.32;;
34765;SDS011;20984;43.508;1.504;2023-07-09T15:05:20;8.25;;;4.70;;
34765;SDS011;20984;43.508;1.504;2023-07-09T15:07:47;7.07;;;5.05;;
34765;SDS011;20984;43.508;1.504;2023-07-09T15:10:17;8.52;;;5.38;;
34765;SDS011;20984;43.508;1.504;2023-07-09T15:12:48;10.15;;;4.38;;
34765;SDS011;20984;43.508;1.504;2023-07-09T15:17:58;8.95;;;4.90;;
34765;SDS011;20984;43.508;1.504;2023-07-09T15:20:27;7.90;;;4.72;;
34765;SDS011;20984;43.508;1.504;2023-07-09T15:22:55;8.00;;;4.50;;
34765;SDS011;20984;43.508;1.504;2023-07-09T15:25:24;7.03;;;4.15;;
34765;SDS011;20984;43.508;1.504;2023-07-09T15:27:52;9.00;;;4.65;;
34765;SDS011;20984;43.508;1.504;2023-07-09T15:30:21;6.30;;;4.20;;
34765;SDS011;20984;43.508;1.504;2023-07-09T15:32:49;9.43;;;4.63;;
34765;SDS011;20984;43.508;1.504;2023-07-09T15:35:16;9.18;;;4.45;;
34765;SDS011;20984;43.508;1.504;2023-07-09T15:37:43;8.60;;;3.92;;
34765;SDS011;20984;43.508;1.504;2023-07-09T15:40:28;9.63;;;4.35;;
34765;SDS011;20984;43.508;1.504;2023-07-09T15:43:05;5.65;;;4.10;;